Time;durP1;ratioP1;P1;durP2;ratioP2;P2;SDS_P1;SDS_P2;PMS_P1;PMS_P2;Temp;Humidity;BMP_temperature;BMP_pressure;BME280_temperature;BME280_humidity;BME280_pressure;Samples;Min_cycle;Max_cycle;Signal;HPM_P1;HPM_P2
2022/03/13 00:00:59;;;;;;;11.43;8.50;;;10.80;67.60;;;;;;5024265;28;20213;-77
2022/03/13 00:03:26;;;;;;;13.65;9.15;;;10.80;68.20;;;;;;5034724;28;20196;-78
2022/03/13 00:05:52;;;;;;;9.93;8.82;;;10.80;66.30;;;;;;5047369;28;20178;-77
2022/03/13 00:08:28;;;;;;;11.15;8.27;;;10.80;66.60;;;;;;5044514;28;20173;-77
2022/03/13 00:11:01;;;;;;;11.30;8.68;;;10.80;67.00;;;;;;5020847;28;20170;-78
2022/03/13 00:13:32;;;;;;;12.13;8.25;;;10.80;66.60;;;;;;5034860;28;20198;-77
2022/03/13 00:15:59;;;;;;;10.05;8.00;;;10.80;66.00;;;;;;5045729;28;20205;-77
2022/03/13 00:18:25;;;;;;;9.25;8.00;;;10.80;66.00;;;;;;5021469;28;20255;-78
2022/03/13 00:20:51;;;;;;;10.60;9.50;;;10.70;65.70;;;;;;5044204;28;20661;-78
2022/03/13 00:23:19;;;;;;;9.57;8.10;;;10.70;66.40;;;;;;5028530;28;20615;-78
2022/03/13 00:25:46;;;;;;;8.40;7.38;;;10.70;65.90;;;;;;5047687;28;20204;-78
2022/03/13 00:28:12;;;;;;;9.67;8.43;;;10.70;65.90;;;;;;5041656;28;20182;-78
2022/03/13 00:30:40;;;;;;;10.98;9.60;;;10.60;66.20;;;;;;5044312;28;20177;-78
2022/03/13 00:33:07;;;;;;;9.02;7.97;;;10.60;66.30;;;;;;5041147;28;20291;-78
2022/03/13 00:35:33;;;;;;;9.73;7.25;;;10.60;65.70;;;;;;5043944;28;20195;-77
2022/03/13 00:38:00;;;;;;;11.90;8.55;;;10.60;65.70;;;;;;5043694;28;20190;-78
2022/03/13 00:40:26;;;;;;;11.82;9.93;;;10.60;65.40;;;;;;5045371;28;20197;-78
2022/03/13 00:42:54;;;;;;;9.70;8.70;;;10.60;65.40;;;;;;5037306;28;20204;-78
2022/03/13 00:45:20;;;;;;;12.03;8.13;;;10.60;65.20;;;;;;5020616;28;20194;-77
2022/03/13 00:47:46;;;;;;;10.98;9.88;;;10.60;65.20;;;;;;5040328;28;21324;-77
2022/03/13 00:50:12;;;;;;;8.87;7.80;;;10.50;65.20;;;;;;5044019;28;20211;-78
2022/03/13 00:52:38;;;;;;;9.02;7.63;;;10.50;64.80;;;;;;5044431;28;20212;-78
2022/03/13 00:55:05;;;;;;;11.23;7.27;;;10.50;65.20;;;;;;5038276;28;20190;-78
2022/03/13 00:57:32;;;;;;;10.90;8.52;;;10.50;64.60;;;;;;5044097;28;20181;-77
2022/03/13 00:59:58;;;;;;;9.68;8.57;;;10.50;64.40;;;;;;5041573;28;20575;-77
2022/03/13 01:02:24;;;;;;;10.57;8.53;;;10.50;64.40;;;;;;5044064;28;20181;-77
2022/03/13 01:04:50;;;;;;;11.10;8.93;;;10.40;64.20;;;;;;5042147;28;20209;-77
2022/03/13 01:07:16;;;;;;;10.73;8.00;;;10.40;64.00;;;;;;5046309;28;20624;-77
2022/03/13 01:09:42;;;;;;;10.00;8.17;;;10.40;63.90;;;;;;5027465;28;20283;-77
2022/03/13 01:12:08;;;;;;;8.30;7.47;;;10.40;63.80;;;;;;5027505;28;20579;-78
2022/03/13 01:14:35;;;;;;;9.15;7.65;;;10.40;63.70;;;;;;5041509;28;20193;-78
2022/03/13 01:17:06;;;;;;;10.48;7.78;;;10.40;63.70;;;;;;5039901;28;20185;-78
2022/03/13 01:19:31;;;;;;;13.10;8.07;;;10.30;63.60;;;;;;5044852;28;20201;-77
2022/03/13 01:21:58;;;;;;;9.30;7.97;;;10.30;63.50;;;;;;5039772;28;20173;-78
2022/03/13 01:24:33;;;;;;;11.77;9.70;;;10.20;63.50;;;;;;5043870;28;20654;-77
2022/03/13 01:27:03;;;;;;;12.23;9.07;;;10.20;63.30;;;;;;5043444;28;20204;-77
2022/03/13 01:29:30;;;;;;;9.73;8.55;;;10.20;63.50;;;;;;5039853;28;20181;-77
2022/03/13 01:31:56;;;;;;;9.45;8.45;;;10.10;63.20;;;;;;5042000;28;20177;-77
2022/03/13 01:34:44;;;;;;;9.85;8.13;;;10.10;63.00;;;;;;5035966;28;20198;-77
2022/03/13 01:37:36;;;;;;;9.93;8.60;;;10.10;62.70;;;;;;5040661;28;20300;-77
2022/03/13 01:40:13;;;;;;;10.43;7.70;;;10.10;62.60;;;;;;5027073;28;20271;-77
2022/03/13 01:42:44;;;;;;;9.75;8.80;;;10.10;62.40;;;;;;5040515;28;20741;-77
2022/03/13 01:45:14;;;;;;;11.23;8.90;;;10.10;62.30;;;;;;5026550;28;20216;-77
2022/03/13 01:47:39;;;;;;;11.57;8.45;;;10.00;62.10;;;;;;5037452;28;20303;-77
2022/03/13 01:50:09;;;;;;;9.40;7.53;;;10.00;61.90;;;;;;5040297;28;20271;-77
2022/03/13 01:52:37;;;;;;;11.52;8.68;;;10.00;61.80;;;;;;5042679;28;20596;-77
2022/03/13 01:55:04;;;;;;;8.85;7.50;;;10.00;61.60;;;;;;5022390;28;20196;-77
2022/03/13 01:57:32;;;;;;;8.65;7.63;;;10.00;61.50;;;;;;5042307;28;20173;-77
2022/03/13 02:00:00;;;;;;;12.20;8.80;;;10.00;61.40;;;;;;5039595;28;20220;-77
2022/03/13 02:02:32;;;;;;;9.95;8.20;;;9.90;62.40;;;;;;5041207;28;20578;-77
2022/03/13 02:04:58;;;;;;;8.32;7.35;;;9.90;62.10;;;;;;5038567;28;20227;-78
2022/03/13 02:07:27;;;;;;;9.80;7.57;;;9.90;62.00;;;;;;5042108;28;20188;-77
2022/03/13 02:09:53;;;;;;;8.38;7.20;;;9.90;62.00;;;;;;5038227;28;20209;-77
2022/03/13 02:12:20;;;;;;;8.90;7.70;;;9.80;61.70;;;;;;5022670;28;20218;-77
2022/03/13 02:14:48;;;;;;;7.40;6.65;;;9.80;61.60;;;;;;5040375;28;20184;-77
2022/03/13 02:17:27;;;;;;;7.35;6.60;;;9.80;61.40;;;;;;5047113;28;20189;-77
2022/03/13 02:19:54;;;;;;;8.10;7.03;;;9.80;61.30;;;;;;4986917;28;20233;-77
2022/03/13 02:22:20;;;;;;;7.13;6.35;;;9.80;61.20;;;;;;5041347;28;20590;-77
2022/03/13 02:24:50;;;;;;;10.30;6.43;;;9.80;61.10;;;;;;5040927;28;20258;-77
2022/03/13 02:27:23;;;;;;;6.82;6.13;;;9.70;61.00;;;;;;5022339;28;20192;-78
2022/03/13 02:29:54;;;;;;;9.95;6.80;;;9.70;60.80;;;;;;5022961;28;20272;-77
2022/03/13 02:32:20;;;;;;;11.15;7.63;;;9.70;60.70;;;;;;5039383;28;20174;-77
2022/03/13 02:34:47;;;;;;;7.93;6.83;;;9.70;60.50;;;;;;5039659;28;20169;-77
2022/03/13 02:37:34;;;;;;;10.23;7.47;;;9.60;60.20;;;;;;5015368;28;20182;-78
2022/03/13 02:40:01;;;;;;;8.50;7.13;;;9.60;60.10;;;;;;5039907;28;20616;-77
2022/03/13 02:42:27;;;;;;;9.90;7.78;;;9.60;59.90;;;;;;5041248;28;20205;-78
2022/03/13 02:44:53;;;;;;;7.90;6.60;;;9.60;59.80;;;;;;5040385;28;20709;-79
2022/03/13 02:47:19;;;;;;;8.53;7.70;;;9.50;59.50;;;;;;5040277;28;20174;-79
2022/03/13 02:49:44;;;;;;;9.53;7.90;;;9.50;59.40;;;;;;5042084;28;20191;-79
2022/03/13 02:52:10;;;;;;;9.60;7.60;;;9.50;59.30;;;;;;5037476;28;20692;-78
2022/03/13 02:54:36;;;;;;;8.70;7.10;;;9.50;59.20;;;;;;5046248;28;20197;-78
2022/03/13 02:57:02;;;;;;;8.70;6.77;;;9.50;59.10;;;;;;5017710;28;20189;-78
2022/03/13 02:59:28;;;;;;;9.05;6.95;;;9.40;58.80;;;;;;5041355;28;20258;-78
2022/03/13 03:01:54;;;;;;;8.27;6.40;;;9.50;58.80;;;;;;5022183;28;20231;-79
2022/03/13 03:04:22;;;;;;;6.90;5.78;;;9.40;58.70;;;;;;5041448;28;20200;-78
2022/03/13 03:06:55;;;;;;;7.38;6.05;;;9.40;58.80;;;;;;5037927;28;20181;-78
2022/03/13 03:09:21;;;;;;;9.15;7.30;;;9.40;59.00;;;;;;5018491;28;20607;-78
2022/03/13 03:11:47;;;;;;;7.47;6.00;;;9.40;58.40;;;;;;5038578;28;20180;-78
2022/03/13 03:14:15;;;;;;;10.10;8.20;;;9.40;58.30;;;;;;5040932;28;20260;-78
2022/03/13 03:16:42;;;;;;;8.38;5.50;;;9.40;58.00;;;;;;5039546;28;20918;-78
2022/03/13 03:19:07;;;;;;;9.30;7.18;;;9.40;58.20;;;;;;5038911;28;20201;-78
2022/03/13 03:21:34;;;;;;;7.53;5.95;;;9.40;57.60;;;;;;5040507;28;20182;-78
2022/03/13 03:24:00;;;;;;;10.53;6.77;;;9.30;57.50;;;;;;5042096;28;20197;-78
2022/03/13 03:26:26;;;;;;;11.07;7.80;;;9.30;57.40;;;;;;5038638;28;20746;-78
2022/03/13 03:28:52;;;;;;;7.33;5.83;;;9.30;57.40;;;;;;5021203;28;20189;-78
2022/03/13 03:31:18;;;;;;;9.33;8.20;;;9.30;57.40;;;;;;5024980;28;20286;-78
2022/03/13 03:33:43;;;;;;;10.87;7.33;;;9.30;56.70;;;;;;5041816;28;20195;-77
2022/03/13 03:36:14;;;;;;;6.60;5.90;;;9.30;57.00;;;;;;5038586;28;20169;-78
2022/03/13 03:38:41;;;;;;;9.13;7.28;;;9.20;57.00;;;;;;5035761;28;20220;-79
2022/03/13 03:41:06;;;;;;;7.43;6.63;;;9.20;56.90;;;;;;5038744;28;20642;-80
2022/03/13 03:43:32;;;;;;;7.90;6.97;;;9.20;56.70;;;;;;5041836;28;20227;-78
2022/03/13 03:45:58;;;;;;;9.73;8.60;;;9.20;56.40;;;;;;5039275;28;20184;-78
2022/03/13 03:48:23;;;;;;;8.37;6.70;;;9.10;56.20;;;;;;5024818;28;20579;-78
2022/03/13 03:50:49;;;;;;;9.30;7.50;;;9.10;56.30;;;;;;5016628;28;20181;-78
2022/03/13 03:53:15;;;;;;;7.40;5.80;;;9.10;56.30;;;;;;5041642;28;20195;-79
2022/03/13 03:55:41;;;;;;;7.77;6.80;;;9.10;56.60;;;;;;5041988;28;20587;-78
2022/03/13 03:58:06;;;;;;;8.30;6.97;;;9.10;56.70;;;;;;5021857;28;20174;-78
2022/03/13 04:00:32;;;;;;;7.93;6.83;;;9.10;56.40;;;;;;5039804;28;20326;-78
2022/03/13 04:03:00;;;;;;;7.68;6.50;;;9.10;56.50;;;;;;5022999;28;20205;-77
2022/03/13 04:05:26;;;;;;;7.50;6.45;;;9.10;56.40;;;;;;5038991;28;20535;-78
2022/03/13 04:07:52;;;;;;;8.00;5.33;;;9.10;56.30;;;;;;5047089;28;20181;-77
2022/03/13 04:10:18;;;;;;;9.73;7.23;;;9.00;56.20;;;;;;5038180;28;20181;-78
2022/03/13 04:12:43;;;;;;;10.43;7.67;;;9.00;55.90;;;;;;5040969;28;20201;-78
2022/03/13 04:15:09;;;;;;;9.80;7.13;;;9.00;56.00;;;;;;5036300;28;20243;-77
2022/03/13 04:17:36;;;;;;;10.27;7.65;;;9.00;55.60;;;;;;5039845;28;20580;-77
2022/03/13 04:20:03;;;;;;;7.60;6.32;;;9.00;55.50;;;;;;5019605;28;20259;-78
2022/03/13 04:22:29;;;;;;;7.00;6.30;;;9.00;55.00;;;;;;5036798;28;20195;-78
2022/03/13 04:24:55;;;;;;;8.17;7.10;;;9.00;55.60;;;;;;5033919;28;20166;-78
2022/03/13 04:27:21;;;;;;;7.97;6.75;;;9.00;55.40;;;;;;5041181;28;20190;-78
2022/03/13 04:29:47;;;;;;;9.00;6.30;;;9.00;55.60;;;;;;5039546;28;20169;-78
2022/03/13 04:32:13;;;;;;;7.70;6.43;;;9.10;55.90;;;;;;5040095;28;20576;-77
2022/03/13 04:34:39;;;;;;;8.70;7.03;;;9.10;55.50;;;;;;5041151;28;20221;-77
2022/03/13 04:37:05;;;;;;;9.27;6.40;;;9.10;55.10;;;;;;5040595;28;20188;-78
2022/03/13 04:39:35;;;;;;;9.25;6.50;;;9.20;55.40;;;;;;5020130;28;20233;-77
2022/03/13 04:42:05;;;;;;;8.50;6.53;;;9.20;55.50;;;;;;5041953;28;20177;-78
2022/03/13 04:44:32;;;;;;;8.13;6.55;;;9.20;55.30;;;;;;5026815;28;20231;-78
2022/03/13 04:46:59;;;;;;;9.27;7.22;;;9.30;55.10;;;;;;5044675;28;20182;-78
2022/03/13 04:49:25;;;;;;;8.40;6.65;;;9.30;55.10;;;;;;5023888;28;20174;-78
2022/03/13 04:51:52;;;;;;;7.53;6.18;;;9.30;54.90;;;;;;5044385;28;20215;-78
2022/03/13 04:54:18;;;;;;;7.50;6.27;;;9.30;54.80;;;;;;5024450;28;20296;-78
2022/03/13 04:56:44;;;;;;;11.30;7.45;;;9.30;54.80;;;;;;5027864;28;20660;-78
2022/03/13 04:59:11;;;;;;;8.00;6.35;;;9.30;54.60;;;;;;5040777;28;20588;-78
2022/03/13 05:01:37;;;;;;;9.15;7.22;;;9.30;54.50;;;;;;5044078;28;20185;-78
2022/03/13 05:04:03;;;;;;;9.40;6.87;;;9.30;54.50;;;;;;5045541;28;20203;-79
2022/03/13 05:06:29;;;;;;;8.48;6.35;;;9.20;53.90;;;;;;5042423;28;20264;-79
2022/03/13 05:08:55;;;;;;;7.33;6.63;;;9.30;54.40;;;;;;5028067;28;20267;-78
2022/03/13 05:11:21;;;;;;;8.38;7.20;;;9.30;54.30;;;;;;5026154;28;20293;-78
2022/03/13 05:13:47;;;;;;;9.90;6.00;;;9.30;53.90;;;;;;5042234;28;20224;-78
2022/03/13 05:16:12;;;;;;;8.70;6.47;;;9.30;53.70;;;;;;5043964;28;20185;-78
2022/03/13 05:18:38;;;;;;;8.20;7.37;;;9.30;54.00;;;;;;5044123;28;20184;-78
2022/03/13 05:21:04;;;;;;;7.90;5.93;;;9.40;53.60;;;;;;5043148;28;20580;-78
2022/03/13 05:23:29;;;;;;;7.37;5.73;;;9.40;53.80;;;;;;5028495;28;20244;-78
2022/03/13 05:25:55;;;;;;;6.47;5.80;;;9.40;53.60;;;;;;5042216;28;20606;-78
2022/03/13 05:28:21;;;;;;;7.00;6.27;;;9.40;53.20;;;;;;5041384;28;20174;-78
2022/03/13 05:30:47;;;;;;;8.97;7.10;;;9.40;53.20;;;;;;5043166;28;20649;-78
2022/03/13 05:33:13;;;;;;;8.67;6.17;;;9.40;53.00;;;;;;5021547;28;20698;-78
2022/03/13 05:35:40;;;;;;;8.90;6.82;;;9.50;53.10;;;;;;5026870;28;20572;-77
2022/03/13 05:38:06;;;;;;;8.60;6.00;;;9.40;52.30;;;;;;5024858;28;20189;-77
2022/03/13 05:40:34;;;;;;;9.10;7.13;;;9.50;53.00;;;;;;5041899;28;20228;-78
2022/03/13 05:43:00;;;;;;;7.50;6.45;;;9.50;53.10;;;;;;5040924;28;20624;-78
2022/03/13 05:45:28;;;;;;;7.80;6.25;;;9.50;52.80;;;;;;5042426;28;20868;-79
2022/03/13 05:48:15;;;;;;;7.90;6.30;;;9.50;52.50;;;;;;5038707;28;20173;-77
2022/03/13 05:50:41;;;;;;;6.53;5.80;;;9.50;52.10;;;;;;5037319;28;20700;-79
2022/03/13 05:53:07;;;;;;;6.80;6.20;;;9.50;52.80;;;;;;5040334;28;20206;-78
2022/03/13 05:55:33;;;;;;;7.10;6.30;;;9.50;52.40;;;;;;5031812;28;20668;-78
2022/03/13 05:58:00;;;;;;;6.07;5.47;;;9.50;52.00;;;;;;5045113;28;20271;-78
2022/03/13 06:00:27;;;;;;;8.45;6.57;;;9.60;52.60;;;;;;5038723;28;20712;-78
2022/03/13 06:02:53;;;;;;;7.70;6.32;;;9.50;51.20;;;;;;5025978;28;20201;-78
2022/03/13 06:05:20;;;;;;;8.82;6.35;;;9.60;51.80;;;;;;5043204;28;20207;-76
2022/03/13 06:07:47;;;;;;;7.72;6.07;;;9.60;52.10;;;;;;5038675;28;20173;-78
2022/03/13 06:10:15;;;;;;;7.47;6.65;;;9.60;52.10;;;;;;5019726;28;20179;-78
2022/03/13 06:12:41;;;;;;;8.75;6.82;;;9.60;51.50;;;;;;5041312;28;20201;-77
2022/03/13 06:15:09;;;;;;;9.20;8.00;;;9.60;51.60;;;;;;5024116;28;20180;-78
2022/03/13 06:17:42;;;;;;;8.07;6.78;;;9.60;51.60;;;;;;5039305;28;20598;-77
2022/03/13 06:20:10;;;;;;;9.30;6.35;;;9.60;51.00;;;;;;5034300;28;20215;-78
2022/03/13 06:22:37;;;;;;;7.82;6.50;;;9.70;51.70;;;;;;5024341;28;20271;-78
2022/03/13 06:25:06;;;;;;;7.22;6.63;;;9.70;51.50;;;;;;5042745;28;20265;-78
2022/03/13 06:27:32;;;;;;;11.10;6.90;;;9.70;51.70;;;;;;5043599;28;20230;-78
2022/03/13 06:30:00;;;;;;;7.10;5.83;;;9.70;51.20;;;;;;5042203;28;20180;-79
2022/03/13 06:32:27;;;;;;;7.07;6.30;;;9.80;51.60;;;;;;5041639;28;20191;-79
2022/03/13 06:34:53;;;;;;;6.25;5.50;;;9.80;51.60;;;;;;5042655;28;20700;-79
2022/03/13 06:37:19;;;;;;;6.70;6.00;;;9.90;51.80;;;;;;5044571;28;20228;-79
2022/03/13 06:39:45;;;;;;;10.10;6.97;;;9.90;51.00;;;;;;5040693;28;20274;-80
2022/03/13 06:42:11;;;;;;;7.20;6.10;;;9.90;51.30;;;;;;5041804;28;20173;-79
2022/03/13 06:44:37;;;;;;;7.50;6.70;;;10.00;50.50;;;;;;5038034;28;20546;-78
2022/03/13 06:47:03;;;;;;;7.60;6.47;;;10.00;49.70;;;;;;5035568;28;20224;-79
2022/03/13 06:49:29;;;;;;;6.75;6.05;;;10.00;49.20;;;;;;5043922;28;20248;-79
2022/03/13 06:51:54;;;;;;;7.60;6.53;;;10.00;50.20;;;;;;5042472;28;20323;-79
2022/03/13 06:54:20;;;;;;;7.00;5.10;;;10.00;50.30;;;;;;5042450;28;20275;-78
2022/03/13 06:56:48;;;;;;;7.80;6.47;;;10.10;50.10;;;;;;5043358;28;20264;-78
2022/03/13 06:59:14;;;;;;;7.45;6.20;;;10.10;49.90;;;;;;5042965;28;20310;-79
2022/03/13 07:01:39;;;;;;;7.53;6.57;;;10.10;49.90;;;;;;5036777;28;20193;-79
2022/03/13 07:04:05;;;;;;;6.80;5.83;;;10.10;48.60;;;;;;5042017;28;20254;-79
2022/03/13 07:06:33;;;;;;;7.70;5.88;;;10.10;49.60;;;;;;5022464;28;20196;-77
2022/03/13 07:08:59;;;;;;;7.82;6.30;;;10.10;49.50;;;;;;5038820;28;20180;-79
2022/03/13 07:11:26;;;;;;;8.25;6.88;;;10.30;50.10;;;;;;5023539;28;20183;-78
2022/03/13 07:13:53;;;;;;;9.40;7.13;;;10.30;49.70;;;;;;5046652;28;20573;-78
2022/03/13 07:16:19;;;;;;;9.88;7.13;;;10.30;49.90;;;;;;5041810;28;20177;-78
2022/03/13 07:18:45;;;;;;;9.20;6.75;;;10.40;49.00;;;;;;5041164;28;20597;-79
2022/03/13 07:21:12;;;;;;;7.03;6.07;;;10.40;48.60;;;;;;5019904;28;20213;-77
2022/03/13 07:23:39;;;;;;;8.75;7.10;;;10.50;48.30;;;;;;5039427;28;20643;-77
2022/03/13 07:26:05;;;;;;;8.77;6.83;;;10.60;49.00;;;;;;5041142;28;20579;-78
2022/03/13 07:28:31;;;;;;;9.33;7.70;;;10.70;49.10;;;;;;5037798;28;20181;-78
2022/03/13 07:30:57;;;;;;;9.67;7.10;;;10.80;49.00;;;;;;5042114;28;20589;-78
2022/03/13 07:33:23;;;;;;;8.48;7.68;;;10.90;48.50;;;;;;5038533;28;20607;-77
2022/03/13 07:35:49;;;;;;;7.70;6.90;;;10.90;48.10;;;;;;5039633;28;20169;-78
2022/03/13 07:38:15;;;;;;;7.67;6.00;;;11.00;47.80;;;;;;5040572;28;20251;-77
2022/03/13 07:40:42;;;;;;;8.20;6.30;;;11.10;47.40;;;;;;5044622;28;20732;-77
2022/03/13 07:43:09;;;;;;;6.47;5.88;;;11.20;47.60;;;;;;5039470;28;20252;-78
2022/03/13 07:45:34;;;;;;;8.07;6.93;;;11.20;47.80;;;;;;5041998;28;20219;-79
2022/03/13 07:48:00;;;;;;;6.40;5.80;;;11.30;47.70;;;;;;5042059;28;20692;-78
2022/03/13 07:50:28;;;;;;;8.73;7.78;;;11.30;46.90;;;;;;5041317;28;20172;-78
2022/03/13 07:52:54;;;;;;;7.07;6.15;;;11.30;47.30;;;;;;5038684;28;20209;-78
2022/03/13 07:55:21;;;;;;;7.65;6.68;;;11.20;46.70;;;;;;5037886;28;20185;-78
2022/03/13 07:57:50;;;;;;;9.07;6.88;;;11.20;46.40;;;;;;5023760;28;20181;-78
2022/03/13 08:00:17;;;;;;;8.85;7.07;;;11.20;46.00;;;;;;5035369;28;20204;-79
2022/03/13 08:02:47;;;;;;;7.95;6.82;;;11.10;46.00;;;;;;5039516;28;20200;-79
2022/03/13 08:05:14;;;;;;;9.30;6.72;;;11.10;46.10;;;;;;5040200;28;20260;-79
2022/03/13 08:07:40;;;;;;;11.32;7.15;;;11.10;46.00;;;;;;5042254;28;20177;-79
2022/03/13 08:10:06;;;;;;;6.70;5.50;;;11.20;45.70;;;;;;5044693;28;20552;-79
2022/03/13 08:12:34;;;;;;;11.05;7.70;;;11.50;47.20;;;;;;5043847;28;20580;-79
2022/03/13 08:14:59;;;;;;;9.70;6.30;;;11.80;46.10;;;;;;5045976;28;20656;-79
2022/03/13 08:17:25;;;;;;;9.00;7.00;;;12.00;46.70;;;;;;5043332;28;20209;-77
2022/03/13 08:19:56;;;;;;;7.15;6.05;;;12.40;46.60;;;;;;5048625;28;20877;-77
2022/03/13 08:22:23;;;;;;;7.90;6.93;;;12.80;47.70;;;;;;5014991;28;20181;-78
2022/03/13 08:24:48;;;;;;;7.82;6.65;;;13.00;46.80;;;;;;5033759;28;20170;-77
2022/03/13 08:27:15;;;;;;;10.03;6.20;;;13.40;47.00;;;;;;5048063;28;20665;-76
2022/03/13 08:29:41;;;;;;;7.78;6.85;;;13.60;46.50;;;;;;5044483;28;20192;-77
2022/03/13 08:32:08;;;;;;;7.77;6.67;;;13.80;45.80;;;;;;5040004;28;20176;-77
2022/03/13 08:34:38;;;;;;;8.60;7.07;;;14.20;46.70;;;;;;5030912;28;20208;-78
2022/03/13 08:37:04;;;;;;;7.87;6.80;;;14.60;46.10;;;;;;5039616;28;20599;-78
2022/03/13 08:39:30;;;;;;;10.30;7.30;;;14.80;45.30;;;;;;5030988;28;20631;-77
2022/03/13 08:41:56;;;;;;;8.03;7.23;;;15.10;44.50;;;;;;5035286;28;20680;-77
2022/03/13 08:44:22;;;;;;;8.10;7.03;;;15.30;43.70;;;;;;5041292;28;20751;-76
2022/03/13 08:46:47;;;;;;;7.93;7.20;;;15.20;42.20;;;;;;5041191;28;20231;-77
2022/03/13 08:49:13;;;;;;;7.73;6.93;;;15.10;41.40;;;;;;5043919;28;20230;-77
2022/03/13 08:51:39;;;;;;;14.53;8.37;;;14.80;41.70;;;;;;5047406;28;20694;-77
2022/03/13 08:54:06;;;;;;;10.00;8.97;;;14.60;41.50;;;;;;5040991;28;20567;-77
2022/03/13 08:56:32;;;;;;;8.90;7.55;;;14.20;39.80;;;;;;5025251;28;20299;-77
2022/03/13 08:58:57;;;;;;;9.10;7.40;;;14.10;40.90;;;;;;5044484;28;20761;-78
2022/03/13 09:01:25;;;;;;;8.60;7.70;;;13.90;41.10;;;;;;5040307;28;20633;-79
2022/03/13 09:03:53;;;;;;;14.80;7.30;;;14.00;41.70;;;;;;5045884;28;20607;-77
2022/03/13 09:06:19;;;;;;;7.40;6.63;;;13.90;40.40;;;;;;5043998;28;20654;-77
2022/03/13 09:08:45;;;;;;;7.23;6.50;;;14.00;41.90;;;;;;5026152;28;20181;-77
2022/03/13 09:11:11;;;;;;;8.63;6.80;;;14.10;41.80;;;;;;5040773;28;20580;-75
2022/03/13 09:13:37;;;;;;;10.30;8.07;;;14.00;41.50;;;;;;5041867;28;20189;-78
2022/03/13 09:16:04;;;;;;;10.98;8.98;;;13.80;40.70;;;;;;5042675;28;20181;-77
2022/03/13 09:18:30;;;;;;;7.40;6.60;;;13.80;41.10;;;;;;5042768;28;20169;-77
2022/03/13 09:20:59;;;;;;;12.43;7.50;;;13.70;41.70;;;;;;5040237;28;20673;-77
2022/03/13 09:23:26;;;;;;;10.13;7.70;;;13.70;42.20;;;;;;5042014;28;20256;-77
2022/03/13 09:25:52;;;;;;;9.07;8.18;;;13.60;42.10;;;;;;5045693;28;20184;-77
2022/03/13 09:28:22;;;;;;;9.43;8.43;;;13.60;41.90;;;;;;5039137;28;20520;-77
2022/03/13 09:30:48;;;;;;;10.60;8.18;;;13.50;41.70;;;;;;5044275;28;20264;-77
2022/03/13 09:33:15;;;;;;;9.45;8.07;;;13.50;41.80;;;;;;5036688;28;20300;-79
2022/03/13 09:35:43;;;;;;;8.80;7.47;;;13.40;41.90;;;;;;5044286;28;20169;-77
2022/03/13 09:38:09;;;;;;;13.77;10.10;;;13.40;42.10;;;;;;5041769;28;20185;-77
2022/03/13 09:40:35;;;;;;;10.87;8.97;;;13.40;41.90;;;;;;5046631;28;21187;-76
2022/03/13 09:43:04;;;;;;;11.65;8.70;;;13.30;41.60;;;;;;5011141;28;20708;-77
2022/03/13 09:45:31;;;;;;;10.20;9.20;;;13.40;42.30;;;;;;5048824;28;20203;-77
2022/03/13 09:47:57;;;;;;;9.75;7.18;;;13.50;42.10;;;;;;5039516;28;20618;-78
2022/03/13 09:50:22;;;;;;;12.30;8.87;;;13.60;42.70;;;;;;5050193;28;20228;-78
2022/03/13 09:52:48;;;;;;;11.30;9.40;;;14.00;42.50;;;;;;5048806;28;20613;-78
2022/03/13 09:55:15;;;;;;;10.03;8.30;;;14.30;43.00;;;;;;5041229;28;20173;-79
2022/03/13 09:57:42;;;;;;;9.13;7.90;;;14.80;43.50;;;;;;5047977;28;20177;-78
2022/03/13 10:00:13;;;;;;;9.53;8.53;;;15.20;42.20;;;;;;5037065;28;20615;-78
2022/03/13 10:02:39;;;;;;;9.53;8.57;;;15.50;42.40;;;;;;5046460;28;20648;-78
2022/03/13 10:05:12;;;;;;;10.53;9.13;;;15.90;42.10;;;;;;5039433;28;20576;-75
2022/03/13 10:07:56;;;;;;;9.93;8.93;;;16.10;41.40;;;;;;5044681;28;20608;-75
2022/03/13 10:10:30;;;;;;;9.57;7.70;;;16.50;42.50;;;;;;5037827;28;20633;-75
2022/03/13 10:12:59;;;;;;;8.33;7.40;;;16.50;41.40;;;;;;5043649;28;20694;-75
2022/03/13 10:15:25;;;;;;;10.73;9.03;;;16.50;41.60;;;;;;5012299;28;20596;-75
2022/03/13 10:17:52;;;;;;;14.83;9.50;;;16.60;41.70;;;;;;5028474;28;20588;-74
2022/03/13 10:20:27;;;;;;;9.13;7.30;;;17.00;40.90;;;;;;5038413;28;21208;-75
2022/03/13 10:23:00;;;;;;;9.87;8.40;;;17.50;41.70;;;;;;5036225;28;20604;-75
2022/03/13 10:25:32;;;;;;;8.00;7.20;;;18.00;42.80;;;;;;5041214;28;20586;-75
2022/03/13 10:28:16;;;;;;;14.83;10.10;;;18.60;42.50;;;;;;5040790;28;20947;-74
2022/03/13 10:30:43;;;;;;;11.47;9.40;;;18.80;40.10;;;;;;5032076;28;20608;-75
2022/03/13 10:33:23;;;;;;;9.33;6.87;;;19.00;41.90;;;;;;5039010;28;20611;-75
2022/03/13 10:36:05;;;;;;;9.00;8.03;;;19.40;43.00;;;;;;5039625;28;20584;-75
2022/03/13 10:38:34;;;;;;;8.60;7.70;;;19.90;41.70;;;;;;5021375;28;20634;-75
2022/03/13 10:41:00;;;;;;;9.93;8.93;;;20.20;41.90;;;;;;5039728;28;20707;-75
2022/03/13 10:43:29;;;;;;;8.43;7.30;;;20.20;41.10;;;;;;5038516;28;20970;-75
2022/03/13 10:45:56;;;;;;;9.27;8.33;;;20.50;42.60;;;;;;5040111;28;20600;-75
2022/03/13 10:48:33;;;;;;;9.17;8.30;;;20.80;41.60;;;;;;5043566;28;21150;-75
2022/03/13 10:51:01;;;;;;;14.87;8.90;;;20.90;39.80;;;;;;5040280;28;20592;-74
2022/03/13 10:53:27;;;;;;;10.53;9.53;;;21.20;42.00;;;;;;5039045;28;20711;-75
2022/03/13 10:56:03;;;;;;;10.87;8.23;;;21.40;41.10;;;;;;5042322;28;20586;-75
2022/03/13 10:58:31;;;;;;;9.53;8.63;;;21.50;40.70;;;;;;5041608;28;20695;-75
2022/03/13 11:01:16;;;;;;;9.70;7.37;;;21.80;41.60;;;;;;5038878;28;21428;-75
2022/03/13 11:03:52;;;;;;;9.60;8.70;;;22.00;41.60;;;;;;5035507;28;20674;-75
2022/03/13 11:06:20;;;;;;;7.73;7.03;;;22.00;39.40;;;;;;5038784;28;20592;-75
2022/03/13 11:08:46;;;;;;;9.03;8.17;;;22.20;40.60;;;;;;5042443;28;20633;-75
2022/03/13 11:11:18;;;;;;;8.90;8.07;;;22.40;40.90;;;;;;5021910;28;20572;-75
2022/03/13 11:13:52;;;;;;;8.90;8.10;;;22.60;41.20;;;;;;5040263;28;20612;-75
2022/03/13 11:16:30;;;;;;;10.30;9.30;;;22.70;38.80;;;;;;5036391;28;20573;-76
2022/03/13 11:19:05;;;;;;;7.70;6.93;;;22.70;38.50;;;;;;5037482;28;21030;-76
2022/03/13 11:21:31;;;;;;;7.90;7.20;;;23.00;39.90;;;;;;5035593;28;21266;-75
2022/03/13 11:24:00;;;;;;;10.80;8.87;;;23.20;40.40;;;;;;5034563;28;21231;-75
2022/03/13 11:26:30;;;;;;;8.90;8.10;;;23.40;39.70;;;;;;5034271;28;20612;-75
2022/03/13 11:28:58;;;;;;;9.20;8.30;;;23.50;39.30;;;;;;5040702;28;20591;-74
2022/03/13 11:31:34;;;;;;;10.13;9.07;;;23.70;39.60;;;;;;5036620;28;20644;-74
2022/03/13 11:34:15;;;;;;;10.13;8.77;;;23.80;38.80;;;;;;5043496;28;20607;-74
2022/03/13 11:36:46;;;;;;;9.67;8.70;;;23.90;38.80;;;;;;5042622;28;21021;-75
2022/03/13 11:39:27;;;;;;;9.93;8.93;;;23.80;37.50;;;;;;5026599;28;20681;-75
2022/03/13 11:41:53;;;;;;;8.30;7.50;;;23.60;37.70;;;;;;5037630;28;21193;-75
2022/03/13 11:44:22;;;;;;;10.67;9.57;;;23.50;38.20;;;;;;5042468;28;21164;-75
2022/03/13 11:46:55;;;;;;;10.77;9.77;;;23.40;38.10;;;;;;5047224;28;20580;-75
2022/03/13 11:49:30;;;;;;;10.27;9.37;;;23.40;37.60;;;;;;5043179;28;20576;-74
2022/03/13 11:52:13;;;;;;;9.77;8.87;;;23.10;37.20;;;;;;5045076;28;20715;-75
2022/03/13 11:54:45;;;;;;;9.60;8.70;;;22.90;36.80;;;;;;5028147;28;20630;-75
2022/03/13 11:57:22;;;;;;;8.80;7.90;;;23.00;38.00;;;;;;5046965;28;20686;-75
2022/03/13 12:00:10;;;;;;;9.17;8.27;;;22.90;37.70;;;;;;5036948;28;20710;-75
2022/03/13 12:02:43;;;;;;;10.47;9.47;;;22.80;37.60;;;;;;5038207;28;20714;-75
2022/03/13 12:05:31;;;;;;;9.70;8.80;;;22.70;37.90;;;;;;5024370;28;20687;-75
2022/03/13 12:08:05;;;;;;;9.57;8.70;;;22.50;37.40;;;;;;5010669;28;20182;-75
2022/03/13 12:10:42;;;;;;;11.17;10.00;;;22.20;37.30;;;;;;5043907;28;21124;-76
2022/03/13 12:13:12;;;;;;;9.57;8.00;;;22.20;37.80;;;;;;5009946;28;20628;-75
2022/03/13 12:15:40;;;;;;;10.40;9.40;;;22.20;38.20;;;;;;5042087;28;20584;-77
2022/03/13 12:18:27;;;;;;;9.40;8.50;;;22.20;38.40;;;;;;5020823;28;20614;-77
2022/03/13 12:21:08;;;;;;;8.60;7.80;;;22.30;38.90;;;;;;5040390;28;20643;-77
2022/03/13 12:23:38;;;;;;;9.23;8.37;;;22.30;38.40;;;;;;5027131;28;20681;-78
2022/03/13 12:26:43;;;;;;;12.20;8.20;;;22.30;38.40;;;;;;5042082;28;20619;-78
2022/03/13 12:29:14;;;;;;;9.20;8.30;;;22.20;38.60;;;;;;5040515;28;21138;-77
2022/03/13 12:31:45;;;;;;;9.57;8.67;;;22.10;38.70;;;;;;5041570;28;21171;-77
2022/03/13 12:34:12;;;;;;;9.50;8.60;;;22.10;39.20;;;;;;5043713;28;20609;-78
2022/03/13 12:36:40;;;;;;;10.17;9.23;;;22.10;39.30;;;;;;5039933;28;20612;-77
2022/03/13 12:39:14;;;;;;;9.07;8.17;;;22.20;39.40;;;;;;5040130;28;20661;-78
2022/03/13 12:41:41;;;;;;;11.13;9.83;;;22.20;39.00;;;;;;5036594;28;21004;-78
2022/03/13 12:44:08;;;;;;;9.27;8.30;;;22.20;38.30;;;;;;5039646;28;20978;-77
2022/03/13 12:46:34;;;;;;;9.67;8.53;;;22.10;38.70;;;;;;5022850;28;20604;-77
2022/03/13 12:49:00;;;;;;;9.40;7.80;;;22.10;38.90;;;;;;5049459;28;20591;-77
2022/03/13 12:51:45;;;;;;;8.50;7.73;;;22.10;38.80;;;;;;5047662;28;20173;-77
2022/03/13 12:54:15;;;;;;;7.80;7.10;;;22.10;38.80;;;;;;5014266;28;20608;-77